Wetterdaten: Woche 15.07.19 - 21.07.19 (KW29)
Datum Zeit Temp. Aussen Temp. o. S. +5cm Feuchte Auss Luftdruck Regen Sonnenschein Regendauer Solar Windben Empfang
15.07.2019 00:00 15,8 C 14,6 C 14,3 C 80 % 1020,0 hPa 0,0 l/m 0,00 h 0,00 h 0 W/m 7,7 km/h (2 Bft) 97,63 %
15.07.2019 01:00 14,8 C 13,1 C 12,8 C 81 % 1020,0 hPa 0,0 l/m 0,00 h 0,00 h 0 W/m 3,8 km/h (1 Bft) 98,22 %
15.07.2019 02:00 13,6 C 11,3 C 11,2 C 84 % 1020,0 hPa 0,0 l/m 0,00 h 0,00 h 0 W/m 0,6 km/h (0 Bft) 94,94 %
15.07.2019 03:00 12,4 C 10,2 C 10,2 C 86 % 1019,8 hPa 0,0 l/m 0,00 h 0,00 h 0 W/m 0,0 km/h (0 Bft) 98,01 %
15.07.2019 04:00 11,4 C 9,5 C 9,5 C 89 % 1019,5 hPa 0,0 l/m 0,00 h 0,00 h 0 W/m 0,0 km/h (0 Bft) 98,50 %
15.07.2019 05:00 10,8 C 9,6 C 9,4 C 91 % 1019,4 hPa 0,0 l/m 0,00 h 0,00 h 5 W/m 0,0 km/h (0 Bft) 96,58 %
15.07.2019 06:00 11,2 C 11,1 C 11,0 C 94 % 1019,6 hPa 0,0 l/m 0,00 h 0,00 h 15 W/m 0,0 km/h (0 Bft) 97,94 %
15.07.2019 07:00 12,0 C 12,5 C 12,2 C 95 % 1019,8 hPa 0,0 l/m 0,00 h 0,00 h 35 W/m 0,0 km/h (0 Bft) 96,58 %
15.07.2019 08:00 13,0 C 13,8 C 13,3 C 95 % 1020,0 hPa 0,0 l/m 0,00 h 0,00 h 65 W/m 1,8 km/h (1 Bft) 98,79 %
15.07.2019 09:00 14,1 C 15,2 C 14,4 C 90 % 1020,3 hPa 0,0 l/m 0,00 h 0,00 h 130 W/m 3,5 km/h (1 Bft) 98,58 %
15.07.2019 10:00 15,2 C 15,7 C 15,0 C 83 % 1020,3 hPa 0,0 l/m 0,00 h 0,00 h 131 W/m 6,0 km/h (2 Bft) 95,80 %
15.07.2019 11:00 15,3 C 15,7 C 15,0 C 82 % 1020,4 hPa 0,0 l/m 0,00 h 0,00 h 133 W/m 7,5 km/h (2 Bft) 98,34 %
15.07.2019 12:00 15,9 C 18,4 C 17,3 C 82 % 1020,2 hPa 0,0 l/m 0,30 h 0,00 h 357 W/m 6,0 km/h (2 Bft) 96,79 %
15.07.2019 13:00 17,3 C 17,9 C 17,1 C 76 % 1020,2 hPa 0,0 l/m 0,00 h 0,00 h 187 W/m 7,0 km/h (2 Bft) 98,72 %
15.07.2019 14:00 17,1 C 17,4 C 16,8 C 77 % 1020,1 hPa 0,0 l/m 0,00 h 0,00 h 179 W/m 7,2 km/h (2 Bft) 97,72 %
15.07.2019 15:00 17,5 C 18,8 C 17,8 C 78 % 1020,0 hPa 0,0 l/m 0,00 h 0,00 h 222 W/m 7,8 km/h (2 Bft) 95,88 %
15.07.2019 16:00 17,5 C 17,7 C 16,9 C 76 % 1020,0 hPa 0,0 l/m 0,00 h 0,00 h 142 W/m 5,6 km/h (1 Bft) 98,93 %
15.07.2019 17:00 17,7 C 18,3 C 17,4 C 76 % 1019,8 hPa 0,0 l/m 0,10 h 0,00 h 190 W/m 7,3 km/h (2 Bft) 97,79 %
15.07.2019 18:00 18,1 C 18,2 C 17,4 C 72 % 1019,6 hPa 0,0 l/m 0,00 h 0,00 h 123 W/m 6,8 km/h (2 Bft) 95,36 %
15.07.2019 19:00 18,1 C 18,0 C 17,1 C 70 % 1019,3 hPa 0,0 l/m 0,07 h 0,00 h 116 W/m 3,3 km/h (1 Bft) 98,79 %
15.07.2019 20:00 17,8 C 16,7 C 16,1 C 71 % 1019,2 hPa 0,0 l/m 0,00 h 0,00 h 30 W/m 2,1 km/h (1 Bft) 97,79 %
15.07.2019 21:00 17,2 C 15,8 C 15,1 C 73 % 1019,2 hPa 0,0 l/m 0,00 h 0,00 h 12 W/m 1,4 km/h (1 Bft) 96,65 %
15.07.2019 22:00 16,5 C 14,8 C 14,4 C 77 % 1019,3 hPa 0,0 l/m 0,00 h 0,00 h 0 W/m 1,7 km/h (1 Bft) 97,37 %
15.07.2019 23:00 15,5 C 13,7 C 13,5 C 82 % 1019,4 hPa 0,0 l/m 0,00 h 0,00 h 0 W/m 2,5 km/h (1 Bft) 98,00 %
16.07.2019 00:00 14,2 C 12,1 C 11,9 C 83 % 1019,6 hPa 0,0 l/m 0,00 h 0,00 h 0 W/m 2,0 km/h (1 Bft) 94,65 %
16.07.2019 01:00 12,8 C 10,7 C 10,4 C 84 % 1019,8 hPa 0,0 l/m 0,00 h 0,00 h 0 W/m 0,7 km/h (0 Bft) 97,87 %
16.07.2019 02:00 11,8 C 10,1 C 9,9 C 86 % 1019,8 hPa 0,0 l/m 0,00 h 0,00 h 0 W/m 0,2 km/h (0 Bft) 94,73 %
16.07.2019 03:00 11,1 C 9,2 C 9,0 C 88 % 1019,6 hPa 0,0 l/m 0,00 h 0,00 h 0 W/m 0,2 km/h (0 Bft) 99,71 %
16.07.2019 04:00 10,4 C 9,2 C 9,1 C 90 % 1019,4 hPa 0,0 l/m 0,00 h 0,00 h 0 W/m 0,1 km/h (0 Bft) 98,03 %
16.07.2019 05:00 10,7 C 10,6 C 10,5 C 93 % 1019,2 hPa 0,0 l/m 0,00 h 0,00 h 5 W/m 0,1 km/h (0 Bft) 97,30 %
16.07.2019 06:00 11,5 C 11,8 C 11,6 C 94 % 1019,2 hPa 0,0 l/m 0,00 h 0,00 h 18 W/m 0,1 km/h (0 Bft) 96,90 %
16.07.2019 07:00 12,5 C 12,7 C 12,3 C 95 % 1019,6 hPa 0,0 l/m 0,00 h 0,00 h 38 W/m 0,0 km/h (0 Bft) 96,64 %
16.07.2019 08:00 13,3 C 13,8 C 13,2 C 94 % 1019,7 hPa 0,0 l/m 0,00 h 0,00 h 77 W/m 2,2 km/h (1 Bft) 98,65 %
16.07.2019 09:00 14,1 C 14,6 C 13,9 C 90 % 1019,7 hPa 0,0 l/m 0,00 h 0,00 h 96 W/m 4,4 km/h (1 Bft) 97,58 %
16.07.2019 10:00 14,6 C 14,9 C 14,2 C 86 % 1019,8 hPa 0,0 l/m 0,00 h 0,00 h 107 W/m 3,7 km/h (1 Bft) 95,67 %
16.07.2019 11:00 15,3 C 16,1 C 14,9 C 83 % 1019,7 hPa 0,0 l/m 0,00 h 0,00 h 150 W/m 4,7 km/h (1 Bft) 98,86 %
16.07.2019 12:00 16,1 C 17,5 C 16,0 C 80 % 1019,7 hPa 0,0 l/m 0,00 h 0,00 h 206 W/m 6,3 km/h (2 Bft) 96,48 %
16.07.2019 13:00 17,2 C 18,9 C 17,3 C 77 % 1019,5 hPa 0,0 l/m 0,00 h 0,00 h 260 W/m 5,6 km/h (1 Bft) 98,85 %
16.07.2019 14:00 18,1 C 19,7 C 18,2 C 74 % 1019,2 hPa 0,0 l/m 0,00 h 0,00 h 285 W/m 6,7 km/h (2 Bft) 96,23 %
16.07.2019 15:00 19,0 C 22,6 C 19,4 C 72 % 1019,0 hPa 0,0 l/m 0,57 h 0,00 h 480 W/m 7,4 km/h (2 Bft) 96,79 %
16.07.2019 16:00 20,7 C 24,0 C 20,5 C 67 % 1018,7 hPa 0,0 l/m 0,90 h 0,00 h 513 W/m 8,5 km/h (2 Bft) 99,50 %
16.07.2019 17:00 21,2 C 23,6 C 20,0 C 66 % 1018,2 hPa 0,0 l/m 0,73 h 0,00 h 416 W/m 7,9 km/h (2 Bft) 96,65 %
16.07.2019 18:00 21,2 C 22,5 C 19,7 C 66 % 1017,8 hPa 0,0 l/m 0,90 h 0,00 h 297 W/m 7,4 km/h (2 Bft) 97,06 %
16.07.2019 19:00 20,7 C 21,1 C 18,9 C 67 % 1017,6 hPa 0,0 l/m 0,80 h 0,00 h 185 W/m 5,1 km/h (1 Bft) 98,65 %
16.07.2019 20:00 19,9 C 18,7 C 17,7 C 70 % 1017,5 hPa 0,0 l/m 0,27 h 0,00 h 74 W/m 4,7 km/h (1 Bft) 97,44 %
16.07.2019 21:00 18,3 C 15,6 C 15,0 C 74 % 1017,4 hPa 0,0 l/m 0,00 h 0,00 h 13 W/m 0,3 km/h (0 Bft) 97,30 %
16.07.2019 22:00 16,3 C 13,3 C 12,8 C 78 % 1017,6 hPa 0,0 l/m 0,00 h 0,00 h 0 W/m 0,0 km/h (0 Bft) 97,79 %
16.07.2019 23:00 14,5 C 11,9 C 11,5 C 83 % 1017,5 hPa 0,0 l/m 0,00 h 0,00 h 0 W/m 0,0 km/h (0 Bft) 97,65 %
17.07.2019 00:00 13,3 C 11,1 C 10,8 C 86 % 1017,4 hPa 0,0 l/m 0,00 h 0,00 h 0 W/m 0,0 km/h (0 Bft) 98,21 %
17.07.2019 01:00 12,5 C 10,5 C 10,1 C 87 % 1017,3 hPa 0,0 l/m 0,00 h 0,00 h 0 W/m 0,0 km/h (0 Bft) 96,01 %
17.07.2019 02:00 11,8 C 10,0 C 9,8 C 89 % 1017,1 hPa 0,0 l/m 0,00 h 0,00 h 0 W/m 0,0 km/h (0 Bft) 97,79 %
17.07.2019 03:00 11,2 C 9,4 C 9,3 C 90 % 1016,9 hPa 0,0 l/m 0,00 h 0,00 h 0 W/m 0,0 km/h (0 Bft) 97,79 %
17.07.2019 04:00 10,9 C 9,9 C 9,8 C 92 % 1016,6 hPa 0,0 l/m 0,00 h 0,00 h 0 W/m 0,0 km/h (0 Bft) 98,15 %
17.07.2019 05:00 11,6 C 11,6 C 11,3 C 95 % 1016,5 hPa 0,0 l/m 0,00 h 0,00 h 0 W/m 0,0 km/h (0 Bft) 95,09 %
17.07.2019 06:00 12,5 C 12,9 C 12,4 C 96 % 1016,4 hPa 0,0 l/m 0,00 h 0,00 h 13 W/m 0,0 km/h (0 Bft) 98,82 %
17.07.2019 07:00 13,3 C 14,1 C 13,5 C 97 % 1016,4 hPa 0,0 l/m 0,00 h 0,00 h 49 W/m 0,0 km/h (0 Bft) 98,25 %
17.07.2019 08:00 14,2 C 15,7 C 14,9 C 96 % 1016,5 hPa 0,0 l/m 0,00 h 0,00 h 105 W/m 0,0 km/h (0 Bft) 95,66 %
17.07.2019 09:00 15,4 C 16,7 C 15,7 C 91 % 1016,6 hPa 0,0 l/m 0,00 h 0,00 h 149 W/m 0,1 km/h (0 Bft) 98,43 %
17.07.2019 10:00 16,8 C 18,6 C 17,5 C 84 % 1016,4 hPa 0,0 l/m 0,00 h 0,00 h 247 W/m 0,0 km/h (0 Bft) 97,51 %
17.07.2019 11:00 18,1 C 19,2 C 18,4 C 78 % 1016,3 hPa 0,0 l/m 0,00 h 0,00 h 220 W/m 0,0 km/h (0 Bft) 96,15 %
17.07.2019 12:00 18,9 C 20,6 C 19,2 C 77 % 1016,3 hPa 0,0 l/m 0,00 h 0,00 h 274 W/m 0,1 km/h (0 Bft) 96,31 %
17.07.2019 13:00 19,9 C 22,3 C 20,7 C 74 % 1016,1 hPa 0,0 l/m 0,10 h 0,00 h 353 W/m 0,1 km/h (0 Bft) 99,21 %
17.07.2019 14:00 21,0 C 24,2 C 22,6 C 70 % 1015,6 hPa 0,0 l/m 0,50 h 0,00 h 485 W/m 3,4 km/h (1 Bft) 96,75 %
17.07.2019 15:00 22,5 C 26,6 C 22,9 C 65 % 1015,3 hPa 0,0 l/m 0,77 h 0,00 h 648 W/m 7,5 km/h (2 Bft) 96,58 %
17.07.2019 16:00 23,6 C 27,7 C 24,3 C 60 % 1014,8 hPa 0,0 l/m 0,80 h 0,00 h 643 W/m 8,1 km/h (2 Bft) 98,79 %
17.07.2019 17:00 24,3 C 25,3 C 22,4 C 56 % 1014,2 hPa 0,0 l/m 0,60 h 0,00 h 413 W/m 8,8 km/h (2 Bft) 96,01 %
17.07.2019 18:00 23,6 C 24,4 C 22,4 C 57 % 1013,6 hPa 0,0 l/m 0,57 h 0,00 h 253 W/m 10,7 km/h (2 Bft) 98,05 %
17.07.2019 19:00 23,0 C 22,4 C 21,4 C 58 % 1013,3 hPa 0,0 l/m 0,20 h 0,00 h 114 W/m 7,0 km/h (2 Bft) 98,09 %
17.07.2019 20:00 22,5 C 21,1 C 19,9 C 61 % 1013,3 hPa 0,0 l/m 0,00 h 0,00 h 60 W/m 3,6 km/h (1 Bft) 96,86 %
17.07.2019 21:00 21,2 C 19,3 C 18,7 C 65 % 1013,4 hPa 0,0 l/m 0,00 h 0,00 h 13 W/m 6,4 km/h (2 Bft) 97,63 %
17.07.2019 22:00 19,7 C 18,0 C 17,7 C 71 % 1013,5 hPa 0,0 l/m 0,00 h 0,00 h 0 W/m 6,2 km/h (2 Bft) 97,67 %
17.07.2019 23:00 18,6 C 16,8 C 16,5 C 75 % 1013,4 hPa 0,0 l/m 0,00 h 0,00 h 0 W/m 4,9 km/h (1 Bft) 98,01 %
18.07.2019 00:00 17,2 C 14,4 C 14,0 C 79 % 1013,3 hPa 0,0 l/m 0,00 h 0,00 h 0 W/m 0,7 km/h (0 Bft) 96,06 %
18.07.2019 01:00 15,6 C 13,0 C 12,6 C 84 % 1013,2 hPa 0,0 l/m 0,00 h 0,00 h 0 W/m 0,2 km/h (0 Bft) 98,15 %
18.07.2019 02:00 14,7 C 13,9 C 13,2 C 87 % 1013,1 hPa 0,0 l/m 0,00 h 0,00 h 0 W/m 4,3 km/h (1 Bft) 97,01 %
18.07.2019 03:00 14,9 C 14,0 C 13,9 C 89 % 1012,8 hPa 0,0 l/m 0,00 h 0,00 h 0 W/m 5,5 km/h (1 Bft) 98,93 %
18.07.2019 04:00 14,8 C 13,9 C 13,8 C 90 % 1012,6 hPa 0,0 l/m 0,00 h 0,00 h 0 W/m 6,1 km/h (2 Bft) 95,73 %
18.07.2019 05:00 14,7 C 13,8 C 13,6 C 91 % 1012,1 hPa 0,0 l/m 0,00 h 0,00 h 6 W/m 7,0 km/h (2 Bft) 97,65 %
18.07.2019 06:00 14,7 C 14,2 C 13,9 C 91 % 1011,9 hPa 0,0 l/m 0,00 h 0,00 h 28 W/m 5,4 km/h (1 Bft) 99,78 %
18.07.2019 07:00 15,2 C 15,6 C 14,7 C 92 % 1011,9 hPa 0,0 l/m 0,03 h 0,00 h 81 W/m 11,5 km/h (2 Bft) 95,10 %
18.07.2019 08:00 16,8 C 18,3 C 17,4 C 87 % 1011,8 hPa 0,0 l/m 0,27 h 0,00 h 148 W/m 10,5 km/h (2 Bft) 97,65 %
18.07.2019 09:00 19,3 C 22,9 C 23,6 C 78 % 1011,8 hPa 0,0 l/m 0,73 h 0,00 h 377 W/m 12,9 km/h (3 Bft) 98,58 %
18.07.2019 10:00 22,5 C 26,7 C 28,2 C 67 % 1011,5 hPa 0,0 l/m 1,00 h 0,00 h 621 W/m 13,0 km/h (3 Bft) 97,65 %
18.07.2019 11:00 24,6 C 27,5 C 27,4 C 57 % 1011,5 hPa 0,0 l/m 0,87 h 0,00 h 589 W/m 13,0 km/h (3 Bft) 97,37 %
18.07.2019 12:00 25,8 C 30,9 C 31,8 C 54 % 1011,3 hPa 0,0 l/m 1,00 h 0,00 h 827 W/m 12,1 km/h (2 Bft) 97,28 %
18.07.2019 13:00 27,5 C 29,9 C 29,9 C 50 % 1011,0 hPa 0,0 l/m 0,60 h 0,00 h 603 W/m 14,6 km/h (3 Bft) 98,36 %
18.07.2019 14:00 25,7 C 25,2 C 24,9 C 54 % 1011,2 hPa 0,0 l/m 0,27 h 0,20 h 318 W/m 17,2 km/h (3 Bft) 96,22 %
18.07.2019 15:00 24,6 C 26,7 C 25,2 C 58 % 1011,2 hPa 0,0 l/m 0,23 h 0,00 h 403 W/m 11,7 km/h (2 Bft) 97,72 %
18.07.2019 16:00 25,9 C 28,1 C 26,2 C 55 % 1010,9 hPa 0,0 l/m 0,90 h 0,00 h 473 W/m 12,3 km/h (3 Bft) 99,36 %
18.07.2019 17:00 25,8 C 25,7 C 24,9 C 57 % 1010,8 hPa 0,0 l/m 0,13 h 0,00 h 211 W/m 10,7 km/h (2 Bft) 95,31 %
18.07.2019 18:00 24,7 C 24,2 C 23,8 C 56 % 1011,0 hPa 0,0 l/m 0,00 h 0,00 h 150 W/m 11,0 km/h (2 Bft) 97,84 %
18.07.2019 19:00 23,8 C 22,9 C 22,5 C 56 % 1011,2 hPa 0,0 l/m 0,00 h 0,00 h 67 W/m 7,3 km/h (2 Bft) 98,94 %
18.07.2019 20:00 22,9 C 21,7 C 21,5 C 62 % 1011,3 hPa 0,0 l/m 0,07 h 0,00 h 34 W/m 5,0 km/h (1 Bft) 95,87 %
18.07.2019 21:00 22,2 C 20,7 C 19,7 C 66 % 1011,5 hPa 0,0 l/m 0,00 h 0,03 h 7 W/m 2,9 km/h (1 Bft) 97,29 %
18.07.2019 22:00 21,5 C 20,1 C 19,7 C 70 % 1012,2 hPa 0,0 l/m 0,00 h 0,00 h 0 W/m 7,5 km/h (2 Bft) 98,22 %
18.07.2019 23:00 20,5 C 19,0 C 19,0 C 76 % 1012,5 hPa 0,0 l/m 0,00 h 0,00 h 0 W/m 6,0 km/h (2 Bft) 97,93 %
19.07.2019 00:00 19,9 C 18,4 C 18,3 C 76 % 1012,7 hPa 0,0 l/m 0,00 h 0,00 h 0 W/m 3,4 km/h (1 Bft) 96,65 %
19.07.2019 01:00 19,2 C 17,1 C 16,7 C 78 % 1012,9 hPa 0,0 l/m 0,00 h 0,00 h 0 W/m 0,2 km/h (0 Bft) 98,00 %
19.07.2019 02:00 18,3 C 17,0 C 16,2 C 82 % 1012,9 hPa 0,0 l/m 0,00 h 0,00 h 0 W/m 1,4 km/h (1 Bft) 99,00 %
19.07.2019 03:00 18,1 C 17,3 C 16,8 C 84 % 1013,0 hPa 0,0 l/m 0,00 h 0,00 h 0 W/m 2,1 km/h (1 Bft) 96,57 %
19.07.2019 04:00 18,3 C 17,6 C 17,2 C 86 % 1013,0 hPa 0,0 l/m 0,00 h 0,00 h 0 W/m 4,3 km/h (1 Bft) 97,21 %
19.07.2019 05:00 18,2 C 17,0 C 16,8 C 87 % 1013,1 hPa 0,0 l/m 0,00 h 0,00 h 7 W/m 4,4 km/h (1 Bft) 98,86 %
19.07.2019 06:00 17,9 C 17,0 C 16,8 C 88 % 1013,2 hPa 0,0 l/m 0,00 h 0,00 h 33 W/m 4,4 km/h (1 Bft) 96,68 %
19.07.2019 07:00 18,1 C 18,4 C 17,9 C 89 % 1013,5 hPa 0,0 l/m 0,00 h 0,00 h 75 W/m 6,2 km/h (2 Bft) 97,15 %
19.07.2019 08:00 19,0 C 20,7 C 19,9 C 86 % 1013,8 hPa 0,0 l/m 0,07 h 0,00 h 129 W/m 7,4 km/h (2 Bft) 98,65 %
19.07.2019 09:00 20,7 C 22,8 C 22,3 C 79 % 1014,0 hPa 0,0 l/m 0,30 h 0,00 h 285 W/m 10,5 km/h (2 Bft) 95,45 %
19.07.2019 10:00 22,0 C 24,6 C 24,3 C 70 % 1014,1 hPa 0,0 l/m 0,73 h 0,00 h 422 W/m 12,7 km/h (3 Bft) 98,36 %
19.07.2019 11:00 22,8 C 26,1 C 26,3 C 64 % 1014,2 hPa 0,0 l/m 1,00 h 0,00 h 582 W/m 17,5 km/h (3 Bft) 98,86 %
19.07.2019 12:00 24,5 C 28,8 C 29,3 C 62 % 1014,2 hPa 0,0 l/m 0,87 h 0,00 h 814 W/m 14,1 km/h (3 Bft) 97,57 %
19.07.2019 13:00 25,2 C 28,4 C 29,5 C 59 % 1014,2 hPa 0,0 l/m 0,77 h 0,00 h 740 W/m 13,9 km/h (3 Bft) 96,44 %
19.07.2019 14:00 26,0 C 30,1 C 29,0 C 55 % 1014,1 hPa 0,0 l/m 0,90 h 0,00 h 675 W/m 10,2 km/h (2 Bft) 97,86 %
19.07.2019 15:00 26,8 C 28,9 C 27,0 C 51 % 1014,0 hPa 0,0 l/m 0,80 h 0,00 h 549 W/m 11,9 km/h (2 Bft) 99,01 %
19.07.2019 16:00 25,8 C 26,8 C 25,7 C 53 % 1014,0 hPa 0,0 l/m 0,50 h 0,00 h 377 W/m 11,7 km/h (2 Bft) 96,08 %
19.07.2019 17:00 26,3 C 28,4 C 25,5 C 51 % 1013,7 hPa 0,0 l/m 0,97 h 0,00 h 485 W/m 12,5 km/h (3 Bft) 97,72 %
19.07.2019 18:00 26,4 C 27,9 C 25,1 C 50 % 1013,5 hPa 0,0 l/m 0,80 h 0,00 h 336 W/m 10,0 km/h (2 Bft) 99,41 %
19.07.2019 19:00 26,0 C 25,9 C 24,1 C 50 % 1013,2 hPa 0,0 l/m 0,67 h 0,00 h 169 W/m 9,9 km/h (2 Bft) 94,88 %
19.07.2019 20:00 25,0 C 23,7 C 23,3 C 52 % 1013,4 hPa 0,0 l/m 0,00 h 0,00 h 46 W/m 7,2 km/h (2 Bft) 98,22 %
19.07.2019 21:00 24,2 C 22,6 C 21,4 C 55 % 1013,4 hPa 0,0 l/m 0,00 h 0,00 h 11 W/m 4,0 km/h (1 Bft) 99,71 %
19.07.2019 22:00 23,0 C 20,6 C 18,7 C 63 % 1013,4 hPa 0,0 l/m 0,00 h 0,00 h 0 W/m 0,7 km/h (0 Bft) 95,51 %
19.07.2019 23:00 21,1 C 18,8 C 17,3 C 67 % 1013,3 hPa 0,0 l/m 0,00 h 0,00 h 0 W/m 1,1 km/h (0 Bft) 97,58 %
20.07.2019 00:00 20,0 C 18,5 C 17,4 C 70 % 1013,1 hPa 0,0 l/m 0,00 h 0,00 h 0 W/m 4,0 km/h (1 Bft) 98,44 %
20.07.2019 01:00 19,4 C 18,1 C 17,6 C 72 % 1012,9 hPa 0,0 l/m 0,00 h 0,00 h 0 W/m 4,6 km/h (1 Bft) 96,51 %
20.07.2019 02:00 18,9 C 17,5 C 17,4 C 75 % 1012,5 hPa 0,0 l/m 0,00 h 0,00 h 0 W/m 7,6 km/h (2 Bft) 98,93 %
20.07.2019 03:00 18,3 C 16,9 C 16,8 C 79 % 1012,2 hPa 0,0 l/m 0,00 h 0,00 h 0 W/m 9,9 km/h (2 Bft) 95,87 %
20.07.2019 04:00 17,7 C 16,7 C 16,3 C 82 % 1011,9 hPa 0,0 l/m 0,00 h 0,00 h 0 W/m 11,1 km/h (2 Bft) 97,60 %
20.07.2019 05:00 17,5 C 16,7 C 16,1 C 84 % 1011,6 hPa 0,0 l/m 0,00 h 0,00 h 4 W/m 12,9 km/h (3 Bft) 99,43 %
20.07.2019 06:00 17,4 C 16,8 C 16,4 C 85 % 1011,2 hPa 0,0 l/m 0,00 h 0,00 h 20 W/m 16,4 km/h (3 Bft) 94,52 %
20.07.2019 07:00 18,0 C 17,8 C 17,2 C 85 % 1010,9 hPa 0,0 l/m 0,00 h 0,00 h 39 W/m 16,7 km/h (3 Bft) 97,78 %
20.07.2019 08:00 20,2 C 22,6 C 20,3 C 80 % 1010,6 hPa 0,0 l/m 0,07 h 0,00 h 107 W/m 16,2 km/h (3 Bft) 99,49 %
20.07.2019 09:00 23,6 C 26,3 C 26,2 C 71 % 1010,4 hPa 0,0 l/m 0,80 h 0,00 h 374 W/m 16,5 km/h (3 Bft) 95,43 %
20.07.2019 10:00 26,4 C 29,2 C 29,6 C 63 % 1010,2 hPa 0,0 l/m 0,63 h 0,00 h 493 W/m 17,5 km/h (3 Bft) 97,54 %
20.07.2019 11:00 28,6 C 30,4 C 30,3 C 55 % 1010,0 hPa 0,0 l/m 0,63 h 0,00 h 448 W/m 16,4 km/h (3 Bft) 98,14 %
20.07.2019 12:00 28,2 C 28,4 C 27,5 C 58 % 1010,1 hPa 0,0 l/m 0,10 h 0,00 h 283 W/m 10,3 km/h (2 Bft) 97,78 %
20.07.2019 13:00 26,8 C 27,6 C 26,0 C 66 % 1010,3 hPa 0,0 l/m 0,13 h 0,03 h 281 W/m 4,8 km/h (1 Bft) 95,92 %
20.07.2019 14:00 27,9 C 28,7 C 27,2 C 63 % 1010,1 hPa 0,2 l/m 0,10 h 0,20 h 252 W/m 5,0 km/h (1 Bft) 97,53 %
20.07.2019 15:00 24,2 C 18,9 C 18,9 C 79 % 1010,2 hPa 6,0 l/m 0,00 h 0,57 h 43 W/m 5,0 km/h (1 Bft) 98,94 %
20.07.2019 16:00 20,0 C 17,3 C 17,1 C 89 % 1010,4 hPa 6,6 l/m 0,00 h 0,90 h 35 W/m 14,5 km/h (3 Bft) 95,47 %
20.07.2019 17:00 19,5 C 18,3 C 17,8 C 94 % 1011,1 hPa 0,6 l/m 0,00 h 0,70 h 111 W/m 6,0 km/h (2 Bft) 97,72 %
20.07.2019 18:00 19,8 C 19,1 C 18,2 C 95 % 1011,5 hPa 0,2 l/m 0,13 h 0,20 h 127 W/m 7,0 km/h (2 Bft) 99,01 %
20.07.2019 19:00 20,7 C 20,3 C 18,5 C 94 % 1011,3 hPa 0,0 l/m 0,63 h 0,00 h 161 W/m 11,2 km/h (2 Bft) 95,16 %
20.07.2019 20:00 21,1 C 19,8 C 18,3 C 90 % 1011,4 hPa 0,0 l/m 0,00 h 0,00 h 53 W/m 12,1 km/h (2 Bft) 99,00 %
20.07.2019 21:00 20,7 C 19,2 C 17,9 C 90 % 1012,0 hPa 0,0 l/m 0,00 h 0,00 h 12 W/m 10,3 km/h (2 Bft) 98,08 %
20.07.2019 22:00 20,1 C 19,0 C 17,5 C 91 % 1013,2 hPa 0,0 l/m 0,00 h 0,00 h 0 W/m 7,4 km/h (2 Bft) 95,52 %
20.07.2019 23:00 19,4 C 17,4 C 16,5 C 91 % 1014,4 hPa 0,0 l/m 0,00 h 0,00 h 0 W/m 0,5 km/h (0 Bft) 98,08 %
21.07.2019 00:00 18,1 C 17,1 C 15,3 C 88 % 1014,8 hPa 0,0 l/m 0,00 h 0,00 h 0 W/m 3,6 km/h (1 Bft) 96,62 %
21.07.2019 01:00 17,7 C 16,7 C 15,0 C 86 % 1015,1 hPa 0,0 l/m 0,00 h 0,00 h 0 W/m 6,5 km/h (2 Bft) 97,43 %
21.07.2019 02:00 17,5 C 16,3 C 15,0 C 86 % 1015,4 hPa 0,0 l/m 0,00 h 0,00 h 0 W/m 7,1 km/h (2 Bft) 97,08 %
21.07.2019 03:00 16,7 C 15,3 C 14,4 C 88 % 1015,8 hPa 0,0 l/m 0,00 h 0,00 h 0 W/m 4,2 km/h (1 Bft) 96,16 %
21.07.2019 04:00 16,1 C 14,8 C 14,0 C 90 % 1016,4 hPa 0,0 l/m 0,00 h 0,00 h 0 W/m 3,4 km/h (1 Bft) 98,65 %
21.07.2019 05:00 15,7 C 14,7 C 14,0 C 91 % 1017,0 hPa 0,0 l/m 0,00 h 0,00 h 5 W/m 4,5 km/h (1 Bft) 96,72 %
21.07.2019 06:00 15,6 C 15,0 C 14,5 C 93 % 1017,7 hPa 0,0 l/m 0,00 h 0,00 h 19 W/m 5,0 km/h (1 Bft) 95,80 %
21.07.2019 07:00 16,1 C 16,3 C 15,5 C 93 % 1018,6 hPa 0,0 l/m 0,00 h 0,00 h 54 W/m 7,3 km/h (2 Bft) 99,57 %
21.07.2019 08:00 17,0 C 17,2 C 16,4 C 92 % 1019,1 hPa 0,0 l/m 0,00 h 0,00 h 88 W/m 7,4 km/h (2 Bft) 97,00 %
21.07.2019 09:00 17,7 C 18,3 C 17,3 C 91 % 1019,8 hPa 0,0 l/m 0,00 h 0,00 h 140 W/m 6,7 km/h (2 Bft) 96,51 %
21.07.2019 10:00 18,7 C 20,1 C 18,8 C 88 % 1020,4 hPa 0,0 l/m 0,07 h 0,00 h 225 W/m 8,6 km/h (2 Bft) 99,15 %
21.07.2019 11:00 19,9 C 20,8 C 19,5 C 83 % 1021,1 hPa 0,0 l/m 0,00 h 0,00 h 231 W/m 11,0 km/h (2 Bft) 97,36 %
21.07.2019 12:00 21,3 C 25,5 C 25,0 C 79 % 1021,5 hPa 0,0 l/m 0,70 h 0,00 h 714 W/m 16,4 km/h (3 Bft) 97,86 %
21.07.2019 13:00 23,9 C 28,3 C 28,3 C 70 % 1021,7 hPa 0,0 l/m 0,93 h 0,00 h 824 W/m 15,7 km/h (3 Bft) 96,29 %
21.07.2019 14:00 25,2 C 29,1 C 28,1 C 63 % 1021,6 hPa 0,0 l/m 1,00 h 0,00 h 783 W/m 13,9 km/h (3 Bft) 98,79 %
21.07.2019 15:00 26,1 C 29,2 C 25,9 C 58 % 1021,6 hPa 0,0 l/m 0,90 h 0,00 h 738 W/m 13,9 km/h (3 Bft) 97,51 %
21.07.2019 16:00 26,4 C 29,6 C 25,8 C 57 % 1021,5 hPa 0,0 l/m 0,83 h 0,00 h 611 W/m 10,5 km/h (2 Bft) 96,51 %
21.07.2019 17:00 26,8 C 27,9 C 25,0 C 57 % 1021,5 hPa 0,0 l/m 0,60 h 0,00 h 383 W/m 10,2 km/h (2 Bft) 99,65 %
21.07.2019 18:00 25,9 C 26,9 C 24,0 C 63 % 1021,4 hPa 0,0 l/m 0,43 h 0,00 h 253 W/m 6,3 km/h (2 Bft) 96,30 %
21.07.2019 19:00 24,8 C 24,9 C 22,4 C 65 % 1021,5 hPa 0,0 l/m 0,50 h 0,00 h 154 W/m 5,1 km/h (1 Bft) 96,64 %
21.07.2019 20:00 23,4 C 21,8 C 20,8 C 68 % 1021,9 hPa 0,0 l/m 0,00 h 0,00 h 46 W/m 5,4 km/h (1 Bft) 99,28 %
21.07.2019 21:00 21,9 C 19,3 C 18,6 C 71 % 1022,4 hPa 0,0 l/m 0,00 h 0,00 h 10 W/m 0,4 km/h (0 Bft) 95,98 %
21.07.2019 22:00 20,1 C 17,7 C 17,1 C 75 % 1022,8 hPa 0,0 l/m 0,00 h 0,00 h 0 W/m 0,9 km/h (0 Bft) 97,00 %
21.07.2019 23:00 18,8 C 16,4 C 15,9 C 78 % 1023,1 hPa 0,0 l/m 0,00 h 0,00 h 0 W/m 0,0 km/h (0 Bft) 99,57 %
Min-Datum _ 16.07.19 15.07.19 16.07.19 18.07.19 20.07.19 - - - - 15.07.19 16.07.19
_ Min-Zeit 04:40 04:58 04:18 13:44 15:30 - - - - 01:34 00:02
Minimum _ 10,3 C 8,9 C 8,3 C 48 % 1009,7 hPa - - - - 0,0 km/h (0 Bft) 11,11 %
Max-Datum _ 20.07.19 18.07.19 18.07.19 17.07.19 21.07.19 20.07.19 16.07.19 20.07.19 20.07.19 20.07.19 15.07.19
_ Max-Zeit 11:40 12:34 12:36 06:56 23:52 16:24 18:08 18:08 13:56 16:14 00:00
Maximum _ 29,1 C 33,3 C 33,9 C 97 % 1023,5 hPa 6,6 l/m 0,07 h 0,07 h 1135 W/m 35,4 km/h
SO (5 Bft)
100,00 %
Durchschnitt _ 19,0 C 19,1 C 18,3 C 77 % 1015,8 hPa #13,6 l/m #31:50 h #2:50 h 238 W/m 6,2 km/h (2 Bft) 97,46 %
© 2019 W. Hausmann